sensor_id;sensor_type;location;lat;lon;timestamp;pressure;altitude;pressure_sealevel;temperature;humidity
27729;BME280;15126;42.186;24.340;2023-02-12T00:00:49;100370.97;;;0.12;52.33
27729;BME280;15126;42.186;24.340;2023-02-12T00:03:16;100365.78;;;0.19;52.25
27729;BME280;15126;42.186;24.340;2023-02-12T00:05:43;100362.16;;;0.27;51.92
27729;BME280;15126;42.186;24.340;2023-02-12T00:08:09;100367.28;;;0.28;52.43
27729;BME280;15126;42.186;24.340;2023-02-12T00:10:39;100364.31;;;0.21;52.68
27729;BME280;15126;42.186;24.340;2023-02-12T00:13:07;100374.78;;;0.19;53.19
27729;BME280;15126;42.186;24.340;2023-02-12T00:15:38;100369.28;;;0.19;53.49
27729;BME280;15126;42.186;24.340;2023-02-12T00:18:06;100351.91;;;0.15;53.66
27729;BME280;15126;42.186;24.340;2023-02-12T00:20:33;100344.50;;;0.16;53.68
27729;BME280;15126;42.186;24.340;2023-02-12T00:23:00;100348.91;;;0.29;53.40
27729;BME280;15126;42.186;24.340;2023-02-12T00:25:26;100342.34;;;0.21;53.83
27729;BME280;15126;42.186;24.340;2023-02-12T00:27:53;100343.34;;;0.17;53.96
27729;BME280;15126;42.186;24.340;2023-02-12T00:30:20;100346.28;;;0.12;54.39
27729;BME280;15126;42.186;24.340;2023-02-12T00:32:48;100337.75;;;0.13;54.10
27729;BME280;15126;42.186;24.340;2023-02-12T00:35:15;100338.66;;;0.17;53.65
27729;BME280;15126;42.186;24.340;2023-02-12T00:37:42;100332.88;;;0.19;53.19
27729;BME280;15126;42.186;24.340;2023-02-12T00:40:11;100332.06;;;0.18;52.91
27729;BME280;15126;42.186;24.340;2023-02-12T00:42:37;100316.66;;;0.26;52.62
27729;BME280;15126;42.186;24.340;2023-02-12T00:45:05;100311.22;;;0.38;52.46
27729;BME280;15126;42.186;24.340;2023-02-12T00:47:32;100314.75;;;0.38;52.90
27729;BME280;15126;42.186;24.340;2023-02-12T00:50:00;100314.19;;;0.45;51.52
27729;BME280;15126;42.186;24.340;2023-02-12T00:52:27;100311.00;;;0.43;51.63
27729;BME280;15126;42.186;24.340;2023-02-12T00:54:54;100318.19;;;0.35;51.30
27729;BME280;15126;42.186;24.340;2023-02-12T00:57:20;100318.56;;;0.46;51.31
27729;BME280;15126;42.186;24.340;2023-02-12T00:59:47;100330.22;;;0.43;51.53
27729;BME280;15126;42.186;24.340;2023-02-12T01:02:14;100331.78;;;0.44;51.13
27729;BME280;15126;42.186;24.340;2023-02-12T01:04:42;100319.47;;;0.50;51.48
27729;BME280;15126;42.186;24.340;2023-02-12T01:07:10;100308.75;;;0.57;51.04
27729;BME280;15126;42.186;24.340;2023-02-12T01:09:38;100301.88;;;0.51;50.99
27729;BME280;15126;42.186;24.340;2023-02-12T01:12:05;100298.25;;;0.59;50.80
27729;BME280;15126;42.186;24.340;2023-02-12T01:14:32;100295.72;;;0.54;50.77
27729;BME280;15126;42.186;24.340;2023-02-12T01:16:59;100296.97;;;0.56;50.54
27729;BME280;15126;42.186;24.340;2023-02-12T01:19:26;100297.78;;;0.57;50.41
27729;BME280;15126;42.186;24.340;2023-02-12T01:21:53;100298.25;;;0.59;50.99
27729;BME280;15126;42.186;24.340;2023-02-12T01:24:21;100287.13;;;0.55;51.24
27729;BME280;15126;42.186;24.340;2023-02-12T01:26:48;100289.41;;;0.53;50.37
27729;BME280;15126;42.186;24.340;2023-02-12T01:29:15;100285.88;;;0.53;51.22
27729;BME280;15126;42.186;24.340;2023-02-12T01:31:42;100276.03;;;0.52;51.62
27729;BME280;15126;42.186;24.340;2023-02-12T01:34:09;100275.56;;;0.50;50.72
27729;BME280;15126;42.186;24.340;2023-02-12T01:36:37;100276.03;;;0.52;50.68
27729;BME280;15126;42.186;24.340;2023-02-12T01:39:05;100265.41;;;0.50;50.63
27729;BME280;15126;42.186;24.340;2023-02-12T01:41:35;100258.97;;;0.46;51.67
27729;BME280;15126;42.186;24.340;2023-02-12T01:44:12;100262.44;;;0.43;51.91
27729;BME280;15126;42.186;24.340;2023-02-12T01:46:40;100252.22;;;0.44;49.33
27729;BME280;15126;42.186;24.340;2023-02-12T01:49:11;100251.09;;;0.45;48.18
27729;BME280;15126;42.186;24.340;2023-02-12T01:51:39;100248.41;;;0.57;48.30
27729;BME280;15126;42.186;24.340;2023-02-12T01:54:10;100249.75;;;0.63;48.78
27729;BME280;15126;42.186;24.340;2023-02-12T01:56:38;100256.16;;;0.67;48.12
27729;BME280;15126;42.186;24.340;2023-02-12T01:59:06;100250.81;;;0.71;48.54
27729;BME280;15126;42.186;24.340;2023-02-12T02:01:34;100260.31;;;0.73;48.81
27729;BME280;15126;42.186;24.340;2023-02-12T02:04:04;100260.75;;;0.75;49.01
27729;BME280;15126;42.186;24.340;2023-02-12T02:06:34;100257.19;;;0.75;48.18
27729;BME280;15126;42.186;24.340;2023-02-12T02:09:02;100252.41;;;0.72;49.06
27729;BME280;15126;42.186;24.340;2023-02-12T02:11:29;100258.25;;;0.70;48.54
27729;BME280;15126;42.186;24.340;2023-02-12T02:14:15;100251.25;;;0.60;48.61
27729;BME280;15126;42.186;24.340;2023-02-12T02:17:08;100258.06;;;0.54;50.28
27729;BME280;15126;42.186;24.340;2023-02-12T02:20:15;100259.47;;;0.48;50.79
27729;BME280;15126;42.186;24.340;2023-02-12T02:22:50;100255.09;;;0.35;52.21
27729;BME280;15126;42.186;24.340;2023-02-12T02:25:48;100258.97;;;0.34;51.71
27729;BME280;15126;42.186;24.340;2023-02-12T02:28:45;100258.38;;;0.29;53.76
27729;BME280;15126;42.186;24.340;2023-02-12T02:31:24;100257.13;;;0.26;52.36
27729;BME280;15126;42.186;24.340;2023-02-12T02:33:54;100267.97;;;0.23;52.96
27729;BME280;15126;42.186;24.340;2023-02-12T02:36:26;100261.34;;;0.24;52.33
27729;BME280;15126;42.186;24.340;2023-02-12T02:39:02;100259.59;;;0.19;52.65
27729;BME280;15126;42.186;24.340;2023-02-12T02:41:34;100261.50;;;0.07;53.64
27729;BME280;15126;42.186;24.340;2023-02-12T02:44:07;100255.34;;;0.10;52.55
27729;BME280;15126;42.186;24.340;2023-02-12T02:46:40;100255.56;;;0.05;52.92
27729;BME280;15126;42.186;24.340;2023-02-12T02:49:13;100250.53;;;0.07;52.26
27729;BME280;15126;42.186;24.340;2023-02-12T02:51:45;100236.00;;;-0.06;52.59
27729;BME280;15126;42.186;24.340;2023-02-12T02:54:16;100254.41;;;0.06;52.73
27729;BME280;15126;42.186;24.340;2023-02-12T02:56:47;100254.75;;;0.04;52.17
27729;BME280;15126;42.186;24.340;2023-02-12T02:59:19;100254.63;;;0.00;52.67
27729;BME280;15126;42.186;24.340;2023-02-12T03:01:53;100261.59;;;-0.02;52.96
27729;BME280;15126;42.186;24.340;2023-02-12T03:04:23;100264.31;;;-0.02;52.96
27729;BME280;15126;42.186;24.340;2023-02-12T03:06:57;100256.00;;;-0.06;52.59
27729;BME280;15126;42.186;24.340;2023-02-12T03:09:30;100261.94;;;-0.04;52.57
27729;BME280;15126;42.186;24.340;2023-02-12T03:12:02;100255.28;;;-0.03;52.17
27729;BME280;15126;42.186;24.340;2023-02-12T03:14:32;100268.38;;;0.13;52.63
27729;BME280;15126;42.186;24.340;2023-02-12T03:17:06;100271.38;;;0.20;53.13
27729;BME280;15126;42.186;24.340;2023-02-12T03:19:37;100271.16;;;0.25;53.00
27729;BME280;15126;42.186;24.340;2023-02-12T03:22:09;100265.94;;;0.32;52.92
27729;BME280;15126;42.186;24.340;2023-02-12T03:24:40;100269.28;;;0.37;52.64
27729;BME280;15126;42.186;24.340;2023-02-12T03:27:12;100263.09;;;0.40;52.89
27729;BME280;15126;42.186;24.340;2023-02-12T03:29:41;100267.91;;;0.43;52.90
27729;BME280;15126;42.186;24.340;2023-02-12T03:32:22;100278.75;;;0.40;52.88
27729;BME280;15126;42.186;24.340;2023-02-12T03:34:55;100273.06;;;0.45;53.40
27729;BME280;15126;42.186;24.340;2023-02-12T03:37:30;100254.88;;;0.40;52.98
27729;BME280;15126;42.186;24.340;2023-02-12T03:40:05;100265.63;;;0.45;52.81
27729;BME280;15126;42.186;24.340;2023-02-12T03:42:39;100258.44;;;0.53;52.33
27729;BME280;15126;42.186;24.340;2023-02-12T03:45:18;100260.28;;;0.61;51.68
27729;BME280;15126;42.186;24.340;2023-02-12T03:47:52;100253.56;;;0.71;50.02
27729;BME280;15126;42.186;24.340;2023-02-12T03:50:30;100250.91;;;0.74;51.00
27729;BME280;15126;42.186;24.340;2023-02-12T03:52:58;100242.13;;;0.81;50.00
27729;BME280;15126;42.186;24.340;2023-02-12T03:55:25;100261.81;;;0.95;50.45
27729;BME280;15126;42.186;24.340;2023-02-12T03:57:56;100267.38;;;0.98;49.77
27729;BME280;15126;42.186;24.340;2023-02-12T04:00:26;100251.16;;;0.81;49.80
27729;BME280;15126;42.186;24.340;2023-02-12T04:02:54;100268.19;;;0.99;49.64
27729;BME280;15126;42.186;24.340;2023-02-12T04:05:23;100262.38;;;1.00;49.17
27729;BME280;15126;42.186;24.340;2023-02-12T04:07:51;100259.84;;;1.07;48.71
27729;BME280;15126;42.186;24.340;2023-02-12T04:10:21;100257.53;;;1.09;48.66
27729;BME280;15126;42.186;24.340;2023-02-12T04:12:56;100258.56;;;1.17;48.86
27729;BME280;15126;42.186;24.340;2023-02-12T04:15:40;100255.50;;;1.18;48.34
27729;BME280;15126;42.186;24.340;2023-02-12T04:18:14;100257.09;;;1.19;48.45
27729;BME280;15126;42.186;24.340;2023-02-12T04:20:52;100262.59;;;1.19;49.04
27729;BME280;15126;42.186;24.340;2023-02-12T04:23:40;100255.00;;;1.29;49.23
27729;BME280;15126;42.186;24.340;2023-02-12T04:26:17;100259.81;;;1.32;48.47
27729;BME280;15126;42.186;24.340;2023-02-12T04:28:54;100266.25;;;1.24;48.34
27729;BME280;15126;42.186;24.340;2023-02-12T04:31:28;100263.50;;;1.24;49.54
27729;BME280;15126;42.186;24.340;2023-02-12T04:34:06;100268.50;;;1.34;48.06
27729;BME280;15126;42.186;24.340;2023-02-12T04:36:37;100269.00;;;1.24;47.77
27729;BME280;15126;42.186;24.340;2023-02-12T04:39:09;100262.69;;;1.23;48.14
27729;BME280;15126;42.186;24.340;2023-02-12T04:41:37;100263.50;;;1.24;49.10
27729;BME280;15126;42.186;24.340;2023-02-12T04:44:21;100244.25;;;1.11;49.09
27729;BME280;15126;42.186;24.340;2023-02-12T04:46:49;100262.47;;;1.16;49.25
27729;BME280;15126;42.186;24.340;2023-02-12T04:49:19;100277.09;;;1.20;48.78
27729;BME280;15126;42.186;24.340;2023-02-12T04:51:47;100275.97;;;1.21;49.18
27729;BME280;15126;42.186;24.340;2023-02-12T04:54:16;100275.16;;;1.20;50.21
27729;BME280;15126;42.186;24.340;2023-02-12T04:56:43;100273.59;;;1.19;49.30
27729;BME280;15126;42.186;24.340;2023-02-12T04:59:11;100267.97;;;1.04;48.92
27729;BME280;15126;42.186;24.340;2023-02-12T05:01:38;100284.91;;;1.18;48.39
27729;BME280;15126;42.186;24.340;2023-02-12T05:04:06;100279.75;;;1.16;47.91
27729;BME280;15126;42.186;24.340;2023-02-12T05:06:36;100284.78;;;1.27;48.25
27729;BME280;15126;42.186;24.340;2023-02-12T05:09:04;100278.94;;;1.28;48.20
27729;BME280;15126;42.186;24.340;2023-02-12T05:11:31;100289.47;;;1.26;48.21
27729;BME280;15126;42.186;24.340;2023-02-12T05:13:58;100280.34;;;1.22;47.43
27729;BME280;15126;42.186;24.340;2023-02-12T05:16:25;100290.28;;;1.14;48.25
27729;BME280;15126;42.186;24.340;2023-02-12T05:18:52;100291.66;;;1.20;48.57
27729;BME280;15126;42.186;24.340;2023-02-12T05:21:19;100314.53;;;1.37;47.35
27729;BME280;15126;42.186;24.340;2023-02-12T05:23:47;100310.41;;;1.31;48.52
27729;BME280;15126;42.186;24.340;2023-02-12T05:26:16;100317.63;;;1.35;48.15
27729;BME280;15126;42.186;24.340;2023-02-12T05:28:43;100320.16;;;1.40;48.87
27729;BME280;15126;42.186;24.340;2023-02-12T05:31:14;100315.91;;;1.43;48.99
27729;BME280;15126;42.186;24.340;2023-02-12T05:33:41;100322.31;;;1.35;50.33
27729;BME280;15126;42.186;24.340;2023-02-12T05:36:10;100320.03;;;1.37;50.24
27729;BME280;15126;42.186;24.340;2023-02-12T05:38:37;100316.38;;;1.33;49.33
27729;BME280;15126;42.186;24.340;2023-02-12T05:41:07;100325.97;;;1.39;48.14
27729;BME280;15126;42.186;24.340;2023-02-12T05:43:34;100326.78;;;1.39;48.91
27729;BME280;15126;42.186;24.340;2023-02-12T05:46:04;100331.72;;;1.46;48.61
27729;BME280;15126;42.186;24.340;2023-02-12T05:48:31;100333.31;;;1.47;49.59
27729;BME280;15126;42.186;24.340;2023-02-12T05:51:02;100323.22;;;1.39;49.93
27729;BME280;15126;42.186;24.340;2023-02-12T05:53:29;100340.84;;;1.62;49.94
27729;BME280;15126;42.186;24.340;2023-02-12T05:56:10;100342.09;;;1.76;49.38
27729;BME280;15126;42.186;24.340;2023-02-12T05:58:38;100324.56;;;1.81;49.02
27729;BME280;15126;42.186;24.340;2023-02-12T06:01:09;100342.88;;;1.89;49.57
27729;BME280;15126;42.186;24.340;2023-02-12T06:03:37;100351.78;;;1.98;49.54
27729;BME280;15126;42.186;24.340;2023-02-12T06:06:04;100349.50;;;2.00;49.34
27729;BME280;15126;42.186;24.340;2023-02-12T06:08:31;100358.19;;;2.02;49.20
27729;BME280;15126;42.186;24.340;2023-02-12T06:11:00;100351.28;;;2.08;49.77
27729;BME280;15126;42.186;24.340;2023-02-12T06:13:29;100350.59;;;2.11;49.89
27729;BME280;15126;42.186;24.340;2023-02-12T06:15:56;100353.34;;;2.11;49.04
27729;BME280;15126;42.186;24.340;2023-02-12T06:18:24;100348.66;;;2.12;50.18
27729;BME280;15126;42.186;24.340;2023-02-12T06:20:51;100351.97;;;2.17;50.00
27729;BME280;15126;42.186;24.340;2023-02-12T06:23:19;100347.00;;;2.23;49.45
27729;BME280;15126;42.186;24.340;2023-02-12T06:25:46;100346.41;;;2.29;50.22
27729;BME280;15126;42.186;24.340;2023-02-12T06:28:13;100345.81;;;2.36;50.03
27729;BME280;15126;42.186;24.340;2023-02-12T06:30:41;100347.16;;;2.42;50.20
27729;BME280;15126;42.186;24.340;2023-02-12T06:33:08;100342.56;;;2.46;51.36
27729;BME280;15126;42.186;24.340;2023-02-12T06:35:35;100354.25;;;2.43;52.36
27729;BME280;15126;42.186;24.340;2023-02-12T06:38:02;100321.13;;;2.39;51.81
27729;BME280;15126;42.186;24.340;2023-02-12T06:40:29;100342.53;;;2.74;51.17
27729;BME280;15126;42.186;24.340;2023-02-12T06:42:56;100352.31;;;2.87;51.16
27729;BME280;15126;42.186;24.340;2023-02-12T06:45:23;100347.78;;;2.94;51.51
27729;BME280;15126;42.186;24.340;2023-02-12T06:47:52;100344.97;;;3.07;50.43
27729;BME280;15126;42.186;24.340;2023-02-12T06:50:19;100357.13;;;3.21;51.21
27729;BME280;15126;42.186;24.340;2023-02-12T06:52:46;100354.63;;;3.32;49.70
27729;BME280;15126;42.186;24.340;2023-02-12T06:55:12;100350.72;;;3.48;50.44
27729;BME280;15126;42.186;24.340;2023-02-12T06:57:39;100350.44;;;3.53;50.27
27729;BME280;15126;42.186;24.340;2023-02-12T07:00:07;100350.97;;;3.59;49.15
27729;BME280;15126;42.186;24.340;2023-02-12T07:02:34;100356.81;;;3.73;49.54
27729;BME280;15126;42.186;24.340;2023-02-12T07:05:03;100362.50;;;3.80;48.72
27729;BME280;15126;42.186;24.340;2023-02-12T07:07:30;100350.81;;;3.87;49.80
27729;BME280;15126;42.186;24.340;2023-02-12T07:09:57;100354.63;;;3.98;48.42
27729;BME280;15126;42.186;24.340;2023-02-12T07:12:24;100341.72;;;4.02;48.67
27729;BME280;15126;42.186;24.340;2023-02-12T07:14:50;100355.34;;;4.14;48.58
27729;BME280;15126;42.186;24.340;2023-02-12T07:17:17;100353.50;;;4.18;48.46
27729;BME280;15126;42.186;24.340;2023-02-12T07:19:44;100356.69;;;4.20;48.82
27729;BME280;15126;42.186;24.340;2023-02-12T07:22:12;100353.91;;;4.20;48.07
27729;BME280;15126;42.186;24.340;2023-02-12T07:24:39;100337.34;;;4.20;48.12
27729;BME280;15126;42.186;24.340;2023-02-12T07:27:06;100353.75;;;4.32;47.40
27729;BME280;15126;42.186;24.340;2023-02-12T07:29:32;100355.06;;;4.38;47.33
27729;BME280;15126;42.186;24.340;2023-02-12T07:31:59;100349.72;;;4.45;46.92
27729;BME280;15126;42.186;24.340;2023-02-12T07:34:26;100342.34;;;4.53;46.81
27729;BME280;15126;42.186;24.340;2023-02-12T07:36:53;100340.66;;;4.67;45.80
27729;BME280;15126;42.186;24.340;2023-02-12T07:39:21;100347.06;;;4.71;46.77
27729;BME280;15126;42.186;24.340;2023-02-12T07:41:48;100340.56;;;4.83;47.17
27729;BME280;15126;42.186;24.340;2023-02-12T07:44:15;100347.03;;;4.91;46.68
27729;BME280;15126;42.186;24.340;2023-02-12T07:46:43;100345.91;;;4.95;47.17
27729;BME280;15126;42.186;24.340;2023-02-12T07:49:12;100321.81;;;4.73;48.61
27729;BME280;15126;42.186;24.340;2023-02-12T07:51:40;100355.50;;;5.01;48.27
27729;BME280;15126;42.186;24.340;2023-02-12T07:54:07;100373.88;;;5.13;48.16
27729;BME280;15126;42.186;24.340;2023-02-12T07:56:36;100348.16;;;4.90;49.37
27729;BME280;15126;42.186;24.340;2023-02-12T07:59:06;100367.66;;;4.97;49.99
27729;BME280;15126;42.186;24.340;2023-02-12T08:01:35;100354.88;;;4.89;50.41
27729;BME280;15126;42.186;24.340;2023-02-12T08:04:04;100369.69;;;5.00;51.37
27729;BME280;15126;42.186;24.340;2023-02-12T08:06:34;100374.50;;;5.03;51.35
27729;BME280;15126;42.186;24.340;2023-02-12T08:09:04;100379.16;;;4.99;52.33
27729;BME280;15126;42.186;24.340;2023-02-12T08:11:38;100378.09;;;5.07;52.39
27729;BME280;15126;42.186;24.340;2023-02-12T08:14:05;100376.97;;;5.08;53.47
27729;BME280;15126;42.186;24.340;2023-02-12T08:16:36;100378.53;;;5.09;53.87
27729;BME280;15126;42.186;24.340;2023-02-12T08:19:03;100373.16;;;5.16;54.02
27729;BME280;15126;42.186;24.340;2023-02-12T08:21:30;100368.59;;;5.27;53.86
27729;BME280;15126;42.186;24.340;2023-02-12T08:23:58;100373.34;;;5.26;53.90
27729;BME280;15126;42.186;24.340;2023-02-12T08:26:26;100374.63;;;5.32;54.09
27729;BME280;15126;42.186;24.340;2023-02-12T08:28:57;100384.88;;;5.32;55.25
27729;BME280;15126;42.186;24.340;2023-02-12T08:31:25;100374.97;;;5.31;55.08
27729;BME280;15126;42.186;24.340;2023-02-12T08:33:53;100369.34;;;5.24;55.49
27729;BME280;15126;42.186;24.340;2023-02-12T08:36:21;100355.13;;;5.25;55.33
27729;BME280;15126;42.186;24.340;2023-02-12T08:38:49;100367.09;;;5.33;55.86
27729;BME280;15126;42.186;24.340;2023-02-12T08:41:18;100373.13;;;5.38;55.30
27729;BME280;15126;42.186;24.340;2023-02-12T08:43:46;100373.63;;;5.44;55.00
27729;BME280;15126;42.186;24.340;2023-02-12T08:46:16;100374.00;;;5.43;55.00
27729;BME280;15126;42.186;24.340;2023-02-12T08:48:44;100378.84;;;5.49;54.29
27729;BME280;15126;42.186;24.340;2023-02-12T08:51:13;100386.63;;;5.66;54.40
27729;BME280;15126;42.186;24.340;2023-02-12T08:53:41;100387.53;;;5.74;54.16
27729;BME280;15126;42.186;24.340;2023-02-12T08:56:10;100393.72;;;5.86;53.47
27729;BME280;15126;42.186;24.340;2023-02-12T08:58:37;100400.81;;;5.87;53.36
27729;BME280;15126;42.186;24.340;2023-02-12T09:01:08;100403.00;;;6.01;53.33
27729;BME280;15126;42.186;24.340;2023-02-12T09:03:37;100397.59;;;6.08;52.89
27729;BME280;15126;42.186;24.340;2023-02-12T09:06:05;100397.03;;;6.25;51.98
27729;BME280;15126;42.186;24.340;2023-02-12T09:08:32;100392.81;;;6.35;51.84
27729;BME280;15126;42.186;24.340;2023-02-12T09:11:03;100403.28;;;6.48;52.05
27729;BME280;15126;42.186;24.340;2023-02-12T09:13:30;100395.91;;;6.59;51.78
27729;BME280;15126;42.186;24.340;2023-02-12T09:15:59;100402.31;;;6.67;51.58
27729;BME280;15126;42.186;24.340;2023-02-12T09:18:27;100406.94;;;6.89;49.13
27729;BME280;15126;42.186;24.340;2023-02-12T09:20:59;100413.00;;;6.98;48.62
27729;BME280;15126;42.186;24.340;2023-02-12T09:23:27;100406.09;;;7.22;47.56
27729;BME280;15126;42.186;24.340;2023-02-12T09:25:54;100398.13;;;7.17;48.05
27729;BME280;15126;42.186;24.340;2023-02-12T09:28:20;100412.47;;;7.26;47.68
27729;BME280;15126;42.186;24.340;2023-02-12T09:30:47;100412.13;;;7.31;47.94
27729;BME280;15126;42.186;24.340;2023-02-12T09:33:14;100418.13;;;7.37;47.58
27729;BME280;15126;42.186;24.340;2023-02-12T09:35:41;100424.56;;;7.48;46.84
27729;BME280;15126;42.186;24.340;2023-02-12T09:38:09;100401.25;;;7.52;46.48
27729;BME280;15126;42.186;24.340;2023-02-12T09:40:42;100431.19;;;7.80;46.24
27729;BME280;15126;42.186;24.340;2023-02-12T09:43:15;100416.28;;;7.99;47.20
27729;BME280;15126;42.186;24.340;2023-02-12T09:45:48;100415.19;;;8.14;46.05
27729;BME280;15126;42.186;24.340;2023-02-12T09:48:38;100407.31;;;8.26;45.20
27729;BME280;15126;42.186;24.340;2023-02-12T09:51:09;100409.78;;;8.31;45.41
27729;BME280;15126;42.186;24.340;2023-02-12T09:53:40;100403.91;;;8.54;43.88
27729;BME280;15126;42.186;24.340;2023-02-12T09:56:15;100415.50;;;8.63;43.99
27729;BME280;15126;42.186;24.340;2023-02-12T09:58:45;100405.59;;;8.73;45.31
27729;BME280;15126;42.186;24.340;2023-02-12T10:01:16;100408.81;;;8.82;44.43
27729;BME280;15126;42.186;24.340;2023-02-12T10:03:43;100407.28;;;8.98;44.00
27729;BME280;15126;42.186;24.340;2023-02-12T10:06:14;100400.94;;;9.02;42.99
27729;BME280;15126;42.186;24.340;2023-02-12T10:09:04;100400.91;;;8.98;43.19
27729;BME280;15126;42.186;24.340;2023-02-12T10:11:44;100401.28;;;8.93;43.76
27729;BME280;15126;42.186;24.340;2023-02-12T10:14:44;100404.84;;;8.86;42.80
27729;BME280;15126;42.186;24.340;2023-02-12T10:17:21;100398.91;;;8.88;43.12
27729;BME280;15126;42.186;24.340;2023-02-12T10:22:51;100409.53;;;8.61;43.74
27729;BME280;15126;42.186;24.340;2023-02-12T10:25:29;100403.53;;;8.59;44.67
27729;BME280;15126;42.186;24.340;2023-02-12T10:28:01;100401.59;;;8.70;43.74
27729;BME280;15126;42.186;24.340;2023-02-12T10:30:38;100400.84;;;8.77;42.92
27729;BME280;15126;42.186;24.340;2023-02-12T10:33:12;100406.78;;;8.72;43.50
27729;BME280;15126;42.186;24.340;2023-02-12T10:35:43;100411.88;;;8.56;43.93
27729;BME280;15126;42.186;24.340;2023-02-12T10:38:16;100399.97;;;8.62;45.17
27729;BME280;15126;42.186;24.340;2023-02-12T10:40:46;100403.53;;;8.56;43.83
27729;BME280;15126;42.186;24.340;2023-02-12T10:43:15;100393.25;;;8.63;44.29
27729;BME280;15126;42.186;24.340;2023-02-12T10:45:42;100399.22;;;8.69;44.46
27729;BME280;15126;42.186;24.340;2023-02-12T10:48:12;100402.81;;;8.73;44.56
27729;BME280;15126;42.186;24.340;2023-02-12T10:50:49;100396.88;;;8.81;43.41
27729;BME280;15126;42.186;24.340;2023-02-12T10:53:21;100400.88;;;8.87;44.84
27729;BME280;15126;42.186;24.340;2023-02-12T10:56:05;100393.31;;;8.84;43.98
27729;BME280;15126;42.186;24.340;2023-02-12T10:58:38;100429.50;;;8.88;43.15
27729;BME280;15126;42.186;24.340;2023-02-12T11:01:15;100425.16;;;8.94;44.07
27729;BME280;15126;42.186;24.340;2023-02-12T11:03:43;100424.75;;;8.88;43.64
27729;BME280;15126;42.186;24.340;2023-02-12T11:06:13;100429.84;;;8.79;44.18
27729;BME280;15126;42.186;24.340;2023-02-12T11:08:41;100426.19;;;8.58;44.92
27729;BME280;15126;42.186;24.340;2023-02-12T11:11:12;100422.56;;;8.54;44.95
27729;BME280;15126;42.186;24.340;2023-02-12T11:13:43;100427.75;;;8.52;44.90
27729;BME280;15126;42.186;24.340;2023-02-12T11:16:13;100434.09;;;8.52;45.28
27729;BME280;15126;42.186;24.340;2023-02-12T11:18:42;100438.09;;;8.55;44.79
27729;BME280;15126;42.186;24.340;2023-02-12T11:21:10;100441.31;;;8.64;45.63
27729;BME280;15126;42.186;24.340;2023-02-12T11:23:39;100441.69;;;8.62;45.84
27729;BME280;15126;42.186;24.340;2023-02-12T11:26:24;100434.06;;;8.49;44.97
27729;BME280;15126;42.186;24.340;2023-02-12T11:28:53;100435.25;;;8.44;45.71
27729;BME280;15126;42.186;24.340;2023-02-12T11:31:22;100449.53;;;8.46;44.98
27729;BME280;15126;42.186;24.340;2023-02-12T11:34:07;100441.81;;;8.22;45.73
27729;BME280;15126;42.186;24.340;2023-02-12T11:36:36;100443.44;;;8.23;45.96
27729;BME280;15126;42.186;24.340;2023-02-12T11:39:04;100437.19;;;8.36;44.82
27729;BME280;15126;42.186;24.340;2023-02-12T11:41:35;100447.97;;;8.45;44.93
27729;BME280;15126;42.186;24.340;2023-02-12T11:44:08;100440.44;;;8.49;45.46
27729;BME280;15126;42.186;24.340;2023-02-12T11:46:37;100437.19;;;8.36;46.03
27729;BME280;15126;42.186;24.340;2023-02-12T11:49:06;100444.34;;;8.37;46.13
27729;BME280;15126;42.186;24.340;2023-02-12T11:51:35;100426.50;;;8.46;46.21
27729;BME280;15126;42.186;24.340;2023-02-12T11:54:03;100438.84;;;8.52;45.59
27729;BME280;15126;42.186;24.340;2023-02-12T11:56:43;100432.91;;;8.57;44.76
27729;BME280;15126;42.186;24.340;2023-02-12T11:59:28;100442.94;;;8.75;44.92
27729;BME280;15126;42.186;24.340;2023-02-12T12:01:58;100437.84;;;8.95;44.59
27729;BME280;15126;42.186;24.340;2023-02-12T12:04:29;100443.88;;;9.04;44.02
27729;BME280;15126;42.186;24.340;2023-02-12T12:07:01;100433.56;;;9.15;42.61
27729;BME280;15126;42.186;24.340;2023-02-12T12:09:35;100429.56;;;9.09;43.35
27729;BME280;15126;42.186;24.340;2023-02-12T12:12:10;100438.38;;;9.36;43.50
27729;BME280;15126;42.186;24.340;2023-02-12T12:14:42;100443.13;;;9.35;43.00
27729;BME280;15126;42.186;24.340;2023-02-12T12:17:37;100451.91;;;9.37;43.56
27729;BME280;15126;42.186;24.340;2023-02-12T12:20:24;100452.72;;;9.52;42.72
27729;BME280;15126;42.186;24.340;2023-02-12T12:22:57;100442.00;;;9.72;42.16
27729;BME280;15126;42.186;24.340;2023-02-12T12:25:29;100440.00;;;9.83;41.28
27729;BME280;15126;42.186;24.340;2023-02-12T12:28:04;100450.34;;;9.72;43.44
27729;BME280;15126;42.186;24.340;2023-02-12T12:30:58;100442.78;;;9.58;42.86
27729;BME280;15126;42.186;24.340;2023-02-12T12:33:40;100429.63;;;9.44;43.45
27729;BME280;15126;42.186;24.340;2023-02-12T12:39:16;100447.09;;;9.27;43.01
27729;BME280;15126;42.186;24.340;2023-02-12T12:42:09;100456.25;;;9.28;43.41
27729;BME280;15126;42.186;24.340;2023-02-12T12:44:57;100459.81;;;9.21;43.98
27729;BME280;15126;42.186;24.340;2023-02-12T12:47:37;100443.09;;;9.07;43.59
27729;BME280;15126;42.186;24.340;2023-02-12T12:50:27;100455.41;;;9.17;44.33
27729;BME280;15126;42.186;24.340;2023-02-12T12:53:06;100462.97;;;9.09;45.00
27729;BME280;15126;42.186;24.340;2023-02-12T12:55:51;100467.72;;;9.09;45.08
27729;BME280;15126;42.186;24.340;2023-02-12T12:58:28;100470.91;;;9.14;45.55
27729;BME280;15126;42.186;24.340;2023-02-12T13:01:09;100472.91;;;9.17;44.58
27729;BME280;15126;42.186;24.340;2023-02-12T13:04:28;100478.91;;;9.26;45.02
27729;BME280;15126;42.186;24.340;2023-02-12T13:07:14;100488.41;;;9.11;45.82
27729;BME280;15126;42.186;24.340;2023-02-12T13:09:57;100487.56;;;8.96;45.46
27729;BME280;15126;42.186;24.340;2023-02-12T13:12:40;100484.31;;;8.84;45.92
27729;BME280;15126;42.186;24.340;2023-02-12T13:15:18;100486.66;;;8.75;46.28
27729;BME280;15126;42.186;24.340;2023-02-12T13:17:57;100486.59;;;8.64;46.43